createdAt,value
2023-01-17T00:02:33.859Z,5.83
2023-01-17T00:06:01.771Z,5.84
2023-01-17T00:09:22.807Z,5.75
2023-01-17T00:12:25.856Z,5.77
2023-01-17T00:19:06.924Z,5.97
2023-01-17T00:22:43.020Z,5.87
2023-01-17T00:26:04.412Z,5.90
2023-01-17T00:29:05.603Z,5.71
2023-01-17T00:32:07.725Z,5.62
2023-01-17T00:35:08.761Z,5.81
2023-01-17T00:38:13.367Z,5.69
2023-01-17T00:41:14.819Z,5.57
2023-01-17T00:44:34.084Z,5.53
2023-01-17T00:47:56.869Z,5.62
2023-01-17T00:51:16.212Z,5.76
2023-01-17T00:54:38.954Z,5.41
2023-01-17T00:57:59.795Z,5.56
2023-01-17T01:01:24.165Z,5.34
2023-01-17T01:04:45.262Z,5.33
2023-01-17T01:08:04.526Z,5.66
2023-01-17T01:11:27.865Z,5.35
2023-01-17T01:14:47.684Z,5.39
2023-01-17T01:18:08.256Z,5.24
2023-01-17T01:21:28.906Z,5.28
2023-01-17T01:24:49.960Z,5.22
2023-01-17T01:28:10.366Z,5.38
2023-01-17T01:34:52.489Z,5.29
2023-01-17T01:37:58.235Z,5.41
2023-01-17T01:40:59.680Z,5.36
2023-01-17T01:44:03.213Z,5.39
2023-01-17T01:47:04.608Z,5.45
2023-01-17T01:50:10.508Z,5.44
2023-01-17T01:53:13.458Z,5.38
2023-01-17T01:56:19.331Z,5.44
2023-01-17T01:59:24.043Z,5.47
2023-01-17T02:02:27.537Z,5.59
2023-01-17T02:05:30.621Z,5.43
2023-01-17T02:08:34.330Z,5.56
2023-01-17T02:11:39.527Z,5.56
2023-01-17T02:14:41.764Z,5.48
2023-01-17T02:17:56.046Z,5.53
2023-01-17T02:21:08.861Z,5.51
2023-01-17T02:24:54.477Z,5.47
2023-01-17T02:28:17.147Z,5.39
2023-01-17T02:31:28.467Z,5.44
2023-01-17T02:34:41.232Z,5.30
2023-01-17T02:37:52.314Z,5.25
2023-01-17T02:41:01.259Z,5.29
2023-01-17T02:44:03.367Z,5.25
2023-01-17T02:47:22.361Z,5.32
2023-01-17T02:50:26.252Z,5.30
2023-01-17T02:53:39.181Z,5.32
2023-01-17T02:56:49.133Z,5.40
2023-01-17T03:00:01.169Z,5.41
2023-01-17T03:03:11.926Z,5.56
2023-01-17T03:06:18.635Z,5.59
2023-01-17T03:09:22.001Z,5.57
2023-01-17T03:12:27.143Z,5.55
2023-01-17T03:15:29.932Z,5.66
2023-01-17T03:18:32.088Z,5.55
2023-01-17T03:21:34.875Z,5.57
2023-01-17T03:24:36.716Z,5.63
2023-01-17T03:27:39.552Z,5.64
2023-01-17T03:30:41.501Z,5.69
2023-01-17T03:33:44.948Z,5.77
2023-01-17T03:36:46.469Z,5.68
2023-01-17T03:39:49.183Z,5.63
2023-01-17T03:42:52.096Z,5.78
2023-01-17T03:46:02.119Z,5.81
2023-01-17T03:49:05.819Z,6.14
2023-01-17T03:52:08.387Z,5.88
2023-01-17T03:55:11.603Z,5.90
2023-01-17T03:58:13.559Z,5.83
2023-01-17T04:01:16.503Z,5.76
2023-01-17T04:04:18.951Z,6.02
2023-01-17T04:07:23.550Z,5.80
2023-01-17T04:10:25.303Z,5.84
2023-01-17T04:13:28.976Z,5.89
2023-01-17T04:16:31.805Z,6.01
2023-01-17T04:19:37.618Z,5.99
2023-01-17T04:22:39.088Z,5.87
2023-01-17T04:29:03.607Z,5.90
2023-01-17T04:32:06.637Z,5.94
2023-01-17T04:35:09.513Z,6.09
2023-01-17T04:38:12.374Z,5.91
2023-01-17T04:41:15.366Z,6.04
2023-01-17T04:44:16.889Z,5.93
2023-01-17T04:47:18.481Z,6.06
2023-01-17T04:50:20.685Z,5.86
2023-01-17T04:53:26.319Z,5.79
2023-01-17T04:56:28.282Z,5.66
2023-01-17T04:59:31.293Z,5.78
2023-01-17T05:02:32.906Z,5.90
2023-01-17T05:05:35.414Z,5.79
2023-01-17T05:08:38.620Z,5.85
2023-01-17T05:11:41.469Z,5.68
2023-01-17T05:14:46.914Z,5.78
2023-01-17T05:17:50.096Z,5.92
2023-01-17T05:20:53.726Z,5.89
2023-01-17T05:23:55.595Z,5.98
2023-01-17T05:27:04.635Z,5.92
2023-01-17T05:30:07.163Z,6.16
2023-01-17T05:33:12.304Z,6.04
2023-01-17T05:36:16.237Z,5.88
2023-01-17T05:39:19.064Z,5.83
2023-01-17T05:42:21.909Z,5.83
2023-01-17T05:45:25.055Z,5.85
2023-01-17T05:48:28.017Z,6.10
2023-01-17T05:51:31.588Z,6.03
2023-01-17T05:54:33.201Z,6.00
2023-01-17T06:00:56.182Z,6.02
2023-01-17T06:03:59.220Z,5.88
2023-01-17T06:07:02.625Z,5.95
2023-01-17T06:10:06.269Z,5.79
2023-01-17T06:13:11.143Z,5.79
2023-01-17T06:16:12.823Z,5.85
2023-01-17T06:19:15.930Z,5.90
2023-01-17T06:25:46.653Z,5.91
2023-01-17T06:28:48.171Z,5.84
2023-01-17T06:31:51.039Z,5.83
2023-01-17T06:34:52.643Z,5.84
2023-01-17T06:37:58.813Z,5.82
2023-01-17T06:41:04.073Z,5.82
2023-01-17T06:44:06.900Z,5.87
2023-01-17T06:47:08.341Z,5.86
2023-01-17T06:50:14.081Z,5.89
2023-01-17T06:53:17.663Z,5.82
2023-01-17T06:56:19.603Z,5.88
2023-01-17T06:59:24.607Z,5.86
2023-01-17T07:02:26.208Z,5.72
2023-01-17T07:05:33.096Z,5.77
2023-01-17T07:08:37.046Z,5.77
2023-01-17T07:11:39.749Z,5.72
2023-01-17T07:14:42.634Z,5.70
2023-01-17T07:17:44.604Z,5.97
2023-01-17T07:20:48.188Z,5.78
2023-01-17T07:23:52.459Z,5.80
2023-01-17T07:26:54.497Z,5.90
2023-01-17T07:29:56.255Z,5.81
2023-01-17T07:32:58.395Z,5.84
2023-01-17T07:36:06.720Z,5.71
2023-01-17T07:39:11.133Z,5.71
2023-01-17T07:42:12.799Z,5.83
2023-01-17T07:45:17.153Z,5.77
2023-01-17T07:48:19.801Z,5.97
2023-01-17T07:54:43.309Z,6.13
2023-01-17T07:57:49.251Z,5.93
2023-01-17T08:00:52.232Z,5.89
2023-01-17T08:03:55.506Z,5.86
2023-01-17T08:06:59.758Z,5.81
2023-01-17T08:10:02.183Z,6.07
2023-01-17T08:13:03.938Z,5.96
2023-01-17T08:16:07.785Z,5.81
2023-01-17T08:19:09.964Z,5.85
2023-01-17T08:22:13.181Z,5.88
2023-01-17T08:28:36.796Z,6.15
2023-01-17T08:31:39.567Z,6.05
2023-01-17T08:34:41.228Z,6.13
2023-01-17T08:37:45.533Z,6.06
2023-01-17T08:40:47.730Z,6.01
2023-01-17T08:43:50.576Z,6.03
2023-01-17T08:46:52.286Z,5.82
2023-01-17T08:49:53.949Z,5.87
2023-01-17T08:53:01.410Z,6.02
2023-01-17T08:56:06.454Z,5.86
2023-01-17T08:59:10.444Z,5.72
2023-01-17T09:02:15.673Z,5.72
2023-01-17T09:05:17.209Z,5.88
2023-01-17T09:08:18.795Z,5.98
2023-01-17T09:11:22.665Z,6.05
2023-01-17T09:14:24.727Z,6.02
2023-01-17T09:17:26.004Z,5.99
2023-01-17T09:20:30.693Z,5.91
2023-01-17T09:23:31.953Z,5.88
2023-01-17T09:26:35.163Z,5.93
2023-01-17T09:29:36.467Z,5.91
2023-01-17T09:32:37.805Z,5.81
2023-01-17T09:35:41.075Z,5.67
2023-01-17T09:38:43.878Z,5.56
2023-01-17T09:41:54.356Z,5.57
2023-01-17T09:44:57.421Z,5.60
2023-01-17T09:48:00.904Z,5.70
2023-01-17T09:51:08.586Z,5.74
2023-01-17T09:54:21.556Z,5.84
2023-01-17T09:57:39.287Z,5.81
2023-01-17T10:00:54.457Z,5.86
2023-01-17T10:04:10.297Z,5.88
2023-01-17T10:07:28.025Z,5.93
2023-01-17T10:10:39.667Z,5.92
2023-01-17T10:13:54.355Z,5.96
2023-01-17T10:17:09.105Z,6.07
2023-01-17T10:20:26.228Z,5.83
2023-01-17T10:23:55.270Z,5.71
2023-01-17T10:27:00.047Z,5.62
2023-01-17T10:30:04.355Z,5.63
2023-01-17T10:33:14.414Z,5.61
2023-01-17T10:36:21.792Z,5.49
2023-01-17T10:39:26.736Z,5.42
2023-01-17T10:42:37.675Z,5.46
2023-01-17T10:45:46.656Z,5.55
2023-01-17T10:48:52.157Z,5.55
2023-01-17T10:52:06.380Z,5.64
2023-01-17T10:55:22.456Z,5.51
2023-01-17T10:58:25.256Z,5.43
2023-01-17T11:01:28.507Z,5.53
2023-01-17T11:04:35.036Z,5.49
2023-01-17T11:07:40.061Z,5.44
2023-01-17T11:10:43.833Z,5.49
2023-01-17T11:13:48.244Z,5.44
2023-01-17T11:17:01.792Z,5.42
2023-01-17T11:20:08.742Z,5.11
2023-01-17T11:23:15.567Z,4.93
2023-01-17T11:26:25.449Z,4.92
2023-01-17T11:29:34.178Z,4.43
2023-01-17T11:32:37.868Z,4.20
2023-01-17T11:35:44.533Z,4.21
2023-01-17T11:39:03.207Z,4.00
2023-01-17T11:42:06.712Z,4.19
2023-01-17T11:45:25.594Z,4.34
2023-01-17T11:48:38.168Z,4.62
2023-01-17T11:51:41.785Z,5.18
2023-01-17T11:54:46.386Z,5.61
2023-01-17T11:57:50.111Z,5.39
2023-01-17T12:01:00.737Z,5.28
2023-01-17T12:04:26.850Z,5.21
2023-01-17T12:07:38.415Z,4.95
2023-01-17T12:10:53.004Z,5.07
2023-01-17T12:14:02.775Z,5.26
2023-01-17T12:17:20.650Z,5.51
2023-01-17T12:20:33.612Z,5.67
2023-01-17T12:23:57.308Z,5.69
2023-01-17T12:27:10.291Z,5.50
2023-01-17T12:30:29.953Z,5.39
2023-01-17T12:33:38.871Z,5.27
2023-01-17T12:36:49.467Z,5.21
2023-01-17T12:39:58.058Z,5.38
2023-01-17T12:43:08.288Z,5.28
2023-01-17T12:46:20.196Z,5.17
2023-01-17T12:49:26.318Z,5.21
2023-01-17T12:52:40.179Z,5.23
2023-01-17T12:55:51.773Z,5.28
2023-01-17T12:58:58.951Z,5.30
2023-01-17T13:02:04.880Z,5.36
2023-01-17T13:05:13.559Z,5.50
2023-01-17T13:08:23.664Z,5.51
2023-01-17T13:11:30.723Z,5.65
2023-01-17T13:14:33.738Z,5.78
2023-01-17T13:17:44.149Z,5.96
2023-01-17T13:21:08.459Z,5.79
2023-01-17T13:24:26.814Z,5.62
2023-01-17T13:28:03.546Z,5.60
2023-01-17T13:31:22.682Z,5.51
2023-01-17T13:34:49.054Z,5.36
2023-01-17T13:38:29.826Z,5.21
2023-01-17T13:41:46.691Z,5.26
2023-01-17T13:44:49.732Z,5.21
2023-01-17T13:51:20.117Z,5.34
2023-01-17T13:54:30.913Z,5.42
2023-01-17T13:57:47.091Z,5.40
2023-01-17T14:00:50.348Z,5.42
2023-01-17T14:04:08.011Z,5.46
2023-01-17T14:07:21.848Z,5.41
2023-01-17T14:10:31.799Z,5.42
2023-01-17T14:13:36.898Z,5.32
2023-01-17T14:16:39.267Z,5.41
2023-01-17T14:19:42.515Z,5.33
2023-01-17T14:22:50.924Z,5.36
2023-01-17T14:25:54.113Z,5.38
2023-01-17T14:28:57.704Z,5.38
2023-01-17T14:32:02.456Z,5.38
2023-01-17T14:35:22.896Z,5.30
2023-01-17T14:38:26.253Z,5.30
2023-01-17T14:41:29.475Z,5.32
2023-01-17T14:44:34.059Z,5.17
2023-01-17T14:47:38.585Z,5.18
2023-01-17T14:50:44.041Z,5.19
2023-01-17T14:53:55.351Z,5.21
2023-01-17T15:00:45.363Z,5.04
2023-01-17T15:03:50.599Z,5.08
2023-01-17T15:10:16.586Z,5.09
2023-01-17T15:13:32.494Z,4.98
2023-01-17T15:16:42.439Z,4.97
2023-01-17T15:19:45.733Z,4.88
2023-01-17T15:22:47.627Z,4.75
2023-01-17T15:25:54.602Z,4.69
2023-01-17T15:29:03.025Z,4.64
2023-01-17T15:32:07.706Z,4.63
2023-01-17T15:35:17.122Z,4.61
2023-01-17T15:38:19.840Z,4.56
2023-01-17T15:41:25.344Z,4.54
2023-01-17T15:44:46.793Z,4.51
2023-01-17T15:47:51.355Z,4.49
2023-01-17T15:50:58.257Z,4.44
2023-01-17T15:53:59.714Z,4.34
2023-01-17T15:57:04.528Z,4.25
2023-01-17T16:00:21.961Z,4.15
2023-01-17T16:03:30.546Z,4.09
2023-01-17T16:06:44.650Z,4.11
2023-01-17T16:09:49.081Z,4.04
2023-01-17T16:12:52.919Z,3.94
2023-01-17T16:16:10.101Z,3.85
2023-01-17T16:19:13.605Z,3.79
2023-01-17T16:22:16.808Z,3.71
2023-01-17T16:25:21.081Z,3.60
2023-01-17T16:28:23.102Z,3.53
2023-01-17T16:31:25.090Z,3.49
2023-01-17T16:34:28.748Z,3.39
2023-01-17T16:37:30.170Z,3.22
2023-01-17T16:40:38.013Z,3.12
2023-01-17T16:43:42.371Z,3.02
2023-01-17T16:46:44.572Z,2.94
2023-01-17T16:49:48.940Z,2.85
2023-01-17T16:52:52.010Z,2.82
2023-01-17T16:55:57.058Z,2.81
2023-01-17T17:02:19.766Z,2.71
2023-01-17T17:05:23.200Z,2.63
2023-01-17T17:08:25.266Z,2.64
2023-01-17T17:11:27.991Z,2.58
2023-01-17T17:14:29.480Z,2.55
2023-01-17T17:17:36.481Z,2.53
2023-01-17T17:20:38.789Z,2.55
2023-01-17T17:23:41.965Z,2.47
2023-01-17T17:26:44.799Z,2.43
2023-01-17T17:29:46.760Z,2.42
2023-01-17T17:32:48.229Z,2.38
2023-01-17T17:35:50.427Z,2.35
2023-01-17T17:38:53.973Z,2.32
2023-01-17T17:41:56.613Z,2.31
2023-01-17T17:44:58.569Z,2.30
2023-01-17T17:48:00.101Z,2.26
2023-01-17T17:51:03.319Z,2.31
2023-01-17T17:54:06.950Z,2.24
2023-01-17T17:57:09.097Z,2.19
2023-01-17T18:00:11.775Z,2.16
2023-01-17T18:03:15.302Z,2.16
2023-01-17T18:09:40.246Z,2.05
2023-01-17T18:12:41.849Z,2.01
2023-01-17T18:15:44.491Z,1.97
2023-01-17T18:18:49.237Z,1.92
2023-01-17T18:21:52.370Z,1.87
2023-01-17T18:24:55.252Z,1.85
2023-01-17T18:27:56.852Z,1.77
2023-01-17T18:31:04.707Z,1.71
2023-01-17T18:34:08.009Z,1.68
2023-01-17T18:37:11.320Z,1.66
2023-01-17T18:40:14.647Z,1.58
2023-01-17T18:43:15.978Z,1.60
2023-01-17T18:46:20.130Z,1.53
2023-01-17T18:49:21.603Z,1.48
2023-01-17T18:52:25.084Z,1.47
2023-01-17T18:55:27.747Z,1.44
2023-01-17T18:58:32.392Z,1.41
2023-01-17T19:01:35.889Z,1.40
2023-01-17T19:04:39.390Z,1.38
2023-01-17T19:07:51.105Z,1.32
2023-01-17T19:14:16.960Z,1.24
2023-01-17T19:17:18.424Z,1.22
2023-01-17T19:20:21.100Z,1.11
2023-01-17T19:23:23.021Z,1.12
2023-01-17T19:26:26.433Z,1.09
2023-01-17T19:29:28.019Z,1.05
2023-01-17T19:32:30.904Z,1.04
2023-01-17T19:35:33.461Z,1.01
2023-01-17T19:38:36.927Z,1.00
2023-01-17T19:41:59.427Z,1.01
2023-01-17T19:45:00.788Z,0.94
2023-01-17T19:48:04.549Z,0.88
2023-01-17T19:51:07.579Z,0.86
2023-01-17T19:54:09.964Z,0.84
2023-01-17T19:57:12.561Z,0.81
2023-01-17T20:00:17.102Z,0.80
2023-01-17T20:03:19.866Z,0.74
2023-01-17T20:06:23.392Z,0.72
2023-01-17T20:09:26.810Z,0.73
2023-01-17T20:12:29.393Z,0.69
2023-01-17T20:15:30.881Z,0.64
2023-01-17T20:18:33.438Z,0.60
2023-01-17T20:21:34.759Z,0.61
2023-01-17T20:24:38.027Z,0.58
2023-01-17T20:27:40.054Z,0.55
2023-01-17T20:30:41.528Z,0.48
2023-01-17T20:33:45.866Z,0.48
2023-01-17T20:36:48.519Z,0.41
2023-01-17T20:39:52.007Z,0.38
2023-01-17T20:42:53.607Z,0.38
2023-01-17T20:49:18.530Z,0.37
2023-01-17T20:52:19.881Z,0.36
2023-01-17T20:55:23.494Z,0.28
2023-01-17T20:58:24.927Z,0.29
2023-01-17T21:01:26.383Z,0.31
2023-01-17T21:04:29.564Z,0.27
2023-01-17T21:07:30.917Z,0.20
2023-01-17T21:10:34.140Z,0.26
2023-01-17T21:13:36.293Z,0.20
2023-01-17T21:16:38.970Z,0.18
2023-01-17T21:19:41.631Z,0.18
2023-01-17T21:22:44.233Z,0.19
2023-01-17T21:25:56.085Z,0.20
2023-01-17T21:29:00.548Z,0.16
2023-01-17T21:32:01.984Z,0.20
2023-01-17T21:35:04.912Z,0.21
2023-01-17T21:38:06.302Z,0.19
2023-01-17T21:41:10.015Z,0.13
2023-01-17T21:44:13.736Z,0.13
2023-01-17T21:47:16.273Z,0.13
2023-01-17T21:50:32.440Z,0.11
2023-01-17T21:53:36.107Z,0.13
2023-01-17T21:57:01.391Z,0.10
2023-01-17T22:00:05.151Z,0.05
2023-01-17T22:03:06.477Z,0.06
2023-01-17T22:12:52.139Z,0.02
2023-01-17T22:15:59.306Z,0.07
2023-01-17T22:19:00.653Z,0.03
2023-01-17T22:22:03.322Z,-0.02
2023-01-17T22:25:05.741Z,-0.03
2023-01-17T22:28:08.995Z,-0.06
2023-01-17T22:31:13.357Z,-0.07
2023-01-17T22:34:16.329Z,-0.07
2023-01-17T22:37:17.949Z,-0.04
2023-01-17T22:40:20.745Z,-0.05
2023-01-17T22:43:23.994Z,-0.06
2023-01-17T22:46:27.376Z,-0.11
2023-01-17T22:49:32.353Z,-0.15
2023-01-17T22:52:36.232Z,-0.18
2023-01-17T22:55:37.516Z,-0.23
2023-01-17T22:58:42.779Z,-0.25
2023-01-17T23:01:45.337Z,-0.25
2023-01-17T23:04:46.866Z,-0.20
2023-01-17T23:07:50.715Z,-0.20
2023-01-17T23:11:10.303Z,-0.26
2023-01-17T23:14:17.054Z,-0.27
2023-01-17T23:17:37.460Z,-0.27
2023-01-17T23:20:40.048Z,-0.33
2023-01-17T23:23:42.569Z,-0.34
2023-01-17T23:27:05.116Z,-0.34
2023-01-17T23:33:32.929Z,-0.30
2023-01-17T23:36:34.198Z,-0.35
2023-01-17T23:39:36.720Z,-0.37
2023-01-17T23:42:56.498Z,-0.39
2023-01-17T23:45:59.924Z,-0.44
2023-01-17T23:49:02.441Z,-0.43
2023-01-17T23:52:04.924Z,-0.46
2023-01-17T23:55:09.760Z,-0.47
2023-01-17T23:58:11.654Z,-0.47
